Time;durP1;ratioP1;P1;durP2;ratioP2;P2;SDS_P1;SDS_P2;PMS_P1;PMS_P2;Temp;Humidity;BMP_temperature;BMP_pressure;BME280_temperature;BME280_humidity;BME280_pressure;Samples;Min_cycle;Max_cycle;Signal;HPM_P1;HPM_P2
2022/07/29 00:01:21;;;;;;;2.98;2.67;;;;;;;28.49;44.71;100841.40;1759410;80;21431;-82
2022/07/29 00:03:48;;;;;;;2.72;2.47;;;;;;;28.49;44.74;100842.80;1759214;80;21046;-83
2022/07/29 00:06:15;;;;;;;2.77;2.47;;;;;;;28.47;44.71;100843.19;1759546;80;20987;-83
2022/07/29 00:08:41;;;;;;;2.85;2.55;;;;;;;28.48;44.74;100843.39;1759651;80;21328;-84
2022/07/29 00:11:08;;;;;;;2.83;2.22;;;;;;;28.47;44.70;100843.19;1759974;81;21110;-82
2022/07/29 00:13:40;;;;;;;3.00;2.65;;;;;;;28.47;44.69;100834.80;1760312;81;20927;-82
2022/07/29 00:16:07;;;;;;;3.10;2.55;;;;;;;28.47;44.66;100833.39;1759280;81;21062;-83
2022/07/29 00:18:33;;;;;;;2.80;2.50;;;;;;;28.47;44.68;100836.19;1759189;80;21042;-83
2022/07/29 00:21:00;;;;;;;2.90;2.60;;;;;;;28.47;44.69;100840.39;1759534;81;20990;-83
2022/07/29 00:23:26;;;;;;;3.30;2.98;;;;;;;28.47;44.67;100838.17;1759679;81;21132;-83
2022/07/29 00:25:53;;;;;;;3.05;2.67;;;;;;;28.47;44.69;100832.58;1759339;81;21484;-83
2022/07/29 00:28:19;;;;;;;2.75;2.55;;;;;;;28.46;44.67;100835.97;1759421;80;21042;-83
2022/07/29 00:30:46;;;;;;;2.77;2.55;;;;;;;28.46;44.67;100840.75;1759171;80;21030;-83
2022/07/29 00:33:13;;;;;;;2.80;2.60;;;;;;;28.47;44.69;100850.77;1758936;81;21916;-83
2022/07/29 00:35:45;;;;;;;3.58;2.80;;;;;;;28.47;44.69;100842.38;1747228;80;21666;-83
2022/07/29 00:38:13;;;;;;;3.33;2.65;;;;;;;28.47;44.72;100850.77;1744053;80;21077;-84
2022/07/29 00:40:39;;;;;;;3.15;2.80;;;;;;;28.46;44.72;100850.55;1743824;80;21026;-83
2022/07/29 00:43:06;;;;;;;3.10;2.80;;;;;;;28.46;44.73;100847.75;1744077;81;21576;-83
2022/07/29 00:45:32;;;;;;;3.30;2.40;;;;;;;28.46;44.75;100858.94;1744140;81;21101;-83
2022/07/29 00:47:59;;;;;;;2.70;2.40;;;;;;;28.46;44.73;100856.95;1743891;80;21865;-83
2022/07/29 00:50:25;;;;;;;3.20;2.90;;;;;;;28.47;44.73;100852.17;1743978;81;21084;-84
2022/07/29 00:52:52;;;;;;;2.90;2.60;;;;;;;28.46;44.72;100847.75;1744137;81;21547;-83
2022/07/29 00:55:18;;;;;;;3.47;3.05;;;;;;;28.46;44.71;100842.15;1743846;82;21862;-83
2022/07/29 00:57:45;;;;;;;2.62;2.30;;;;;;;28.45;44.73;100843.32;1744190;82;20962;-83
2022/07/29 01:00:19;;;;;;;3.60;2.52;;;;;;;28.45;44.75;100849.73;1744281;80;21807;-83
2022/07/29 01:02:48;;;;;;;2.77;2.40;;;;;;;28.44;44.76;100845.31;1742925;81;21060;-83
2022/07/29 01:05:16;;;;;;;3.02;2.70;;;;;;;28.44;44.72;100846.70;1744214;80;21555;-82
2022/07/29 01:07:42;;;;;;;2.40;2.20;;;;;;;28.46;44.75;100847.75;1738689;81;21105;-83
2022/07/29 01:10:10;;;;;;;3.40;2.70;;;;;;;28.45;44.76;100851.13;1686862;84;21123;-83
2022/07/29 01:12:37;;;;;;;3.47;2.60;;;;;;;28.45;44.79;100848.92;1672951;84;21159;-83
2022/07/29 01:15:05;;;;;;;3.85;2.60;;;;;;;28.44;44.80;100850.09;1762009;80;21514;-83
2022/07/29 01:17:46;;;;;;;3.00;2.70;;;;;;;28.45;44.78;100850.32;1741008;81;21482;-83
2022/07/29 01:20:23;;;;;;;3.12;2.50;;;;;;;28.44;44.82;100855.10;1732775;81;21144;-83
2022/07/29 01:23:10;;;;;;;2.95;2.42;;;;;;;28.44;44.83;100849.50;1751513;80;21444;-83
2022/07/29 01:26:00;;;;;;;2.83;2.50;;;;;;;28.44;44.82;100846.70;1740475;81;21365;-83
2022/07/29 01:28:51;;;;;;;2.65;2.37;;;;;;;28.44;44.80;100851.48;1740617;82;20999;-83
2022/07/29 01:31:28;;;;;;;2.80;2.55;;;;;;;28.44;44.79;100851.48;1751616;82;21093;-82
2022/07/29 01:34:01;;;;;;;3.27;2.65;;;;;;;28.43;44.79;100853.48;1751149;80;21081;-82
2022/07/29 01:36:57;;;;;;;4.28;2.72;;;;;;;28.42;44.79;100847.69;1751369;80;21081;-83
2022/07/29 01:39:30;;;;;;;2.60;2.40;;;;;;;28.41;44.81;100850.25;1751113;80;21481;-82
2022/07/29 01:42:22;;;;;;;2.50;2.30;;;;;;;28.40;44.79;100835.22;1751370;82;21072;-83
2022/07/29 01:45:11;;;;;;;4.15;2.30;;;;;;;28.40;44.79;100848.62;1750940;81;21057;-83
2022/07/29 01:47:46;;;;;;;3.23;2.93;;;;;;;28.40;44.81;100847.23;1740574;82;21569;-83
2022/07/29 01:50:16;;;;;;;2.80;2.50;;;;;;;28.39;44.87;100847.00;1750475;80;21812;-82
2022/07/29 01:53:02;;;;;;;3.77;2.80;;;;;;;28.41;44.81;100850.84;1741003;81;21543;-82
2022/07/29 01:55:44;;;;;;;3.20;2.67;;;;;;;28.39;44.85;100847.62;1751059;80;21022;-83
2022/07/29 01:58:11;;;;;;;4.22;3.00;;;;;;;28.39;44.87;100841.41;1751324;80;21050;-83
2022/07/29 02:00:37;;;;;;;2.95;2.67;;;;;;;28.39;44.89;100837.83;1751386;82;21066;-83
2022/07/29 02:03:07;;;;;;;3.22;2.80;;;;;;;28.39;44.87;100843.42;1751421;82;21483;-83
2022/07/29 02:05:34;;;;;;;4.67;2.65;;;;;;;28.40;44.87;100842.22;1750769;80;22195;-83
2022/07/29 02:08:00;;;;;;;2.77;2.42;;;;;;;28.38;44.87;100835.61;1751312;81;20970;-83
2022/07/29 02:10:29;;;;;;;3.30;2.80;;;;;;;28.40;44.89;100833.83;1751827;80;21097;-83
2022/07/29 02:12:57;;;;;;;3.37;2.60;;;;;;;28.39;44.87;100833.01;1751632;80;21109;-83
2022/07/29 02:15:27;;;;;;;2.98;2.67;;;;;;;28.39;44.87;100833.63;1751643;82;21544;-82
2022/07/29 02:18:17;;;;;;;;;;;;;;;28.39;44.88;100834.41;1754374;80;21223;-83
2022/07/29 02:20:49;;;;;;;2.95;2.60;;;;;;;28.39;44.87;100833.63;1740663;81;20488;-83
2022/07/29 02:23:20;;;;;;;3.02;2.67;;;;;;;28.37;44.87;100831.77;1751754;81;21069;-83
2022/07/29 02:25:49;;;;;;;3.30;2.77;;;;;;;28.37;44.88;100828.39;1751356;81;21092;-83
2022/07/29 02:28:15;;;;;;;3.25;2.60;;;;;;;28.38;44.84;100828.61;1741469;81;20930;-82
2022/07/29 02:30:42;;;;;;;3.60;2.67;;;;;;;28.37;44.88;100828.97;1751786;80;21121;-82
2022/07/29 02:33:10;;;;;;;3.00;2.70;;;;;;;28.37;44.87;100826.17;1751395;80;21097;-83
2022/07/29 02:35:37;;;;;;;3.40;2.75;;;;;;;28.36;44.88;100836.55;1751831;80;21025;-82
2022/07/29 02:40:48;;;;;;;3.00;2.72;;;;;;;28.38;44.88;100841.20;1751517;80;21516;-83
2022/07/29 02:43:15;;;;;;;2.95;2.65;;;;;;;28.38;44.89;100843.19;1751963;80;21812;-82
2022/07/29 02:45:45;;;;;;;2.92;2.60;;;;;;;28.38;44.88;100845.99;1751734;80;21006;-82
2022/07/29 02:48:15;;;;;;;2.90;2.60;;;;;;;28.38;44.89;100838.41;1750114;81;21077;-81
2022/07/29 02:50:47;;;;;;;3.35;2.80;;;;;;;28.38;44.87;100843.19;1751636;80;21484;-82
2022/07/29 02:53:22;;;;;;;3.70;2.70;;;;;;;28.38;44.90;100837.59;1751455;81;21097;-83
2022/07/29 02:56:01;;;;;;;4.17;2.90;;;;;;;28.38;44.90;100834.22;1751565;80;22079;-83
2022/07/29 02:58:30;;;;;;;2.60;2.40;;;;;;;28.37;44.92;100836.78;1751711;80;21559;-83
2022/07/29 03:00:58;;;;;;;3.37;2.65;;;;;;;28.38;44.88;100841.80;1751456;80;21497;-83
2022/07/29 03:03:28;;;;;;;3.20;2.90;;;;;;;28.37;44.92;100832.59;1751524;80;21411;-83
2022/07/29 03:05:55;;;;;;;2.90;2.70;;;;;;;28.39;44.89;100829.43;1751774;80;20938;-84
2022/07/29 03:08:22;;;;;;;3.00;2.70;;;;;;;28.37;44.89;100825.59;1751459;81;21182;-83
2022/07/29 03:10:48;;;;;;;3.30;3.00;;;;;;;28.38;44.92;100834.80;1751670;80;20982;-83
2022/07/29 03:13:15;;;;;;;2.98;2.20;;;;;;;28.37;44.94;100831.19;1751555;81;21006;-83
2022/07/29 03:15:43;;;;;;;3.22;2.75;;;;;;;28.38;44.92;100834.80;1751344;80;21058;-83
2022/07/29 03:18:09;;;;;;;3.05;2.75;;;;;;;28.38;44.94;100835.61;1751620;80;21096;-83
2022/07/29 03:20:38;;;;;;;2.95;2.65;;;;;;;28.38;44.93;100833.40;1757449;80;21111;-83
2022/07/29 03:23:04;;;;;;;3.12;2.75;;;;;;;28.38;44.95;100830.60;1751339;80;21073;-83
2022/07/29 03:25:31;;;;;;;2.80;2.47;;;;;;;28.37;44.99;100844.36;1751671;80;21354;-84
2022/07/29 03:27:57;;;;;;;3.30;2.70;;;;;;;28.38;44.96;100850.19;1751679;80;21037;-83
2022/07/29 03:30:24;;;;;;;3.17;2.55;;;;;;;28.39;45.00;100853.22;1751535;81;21538;-83
2022/07/29 03:32:50;;;;;;;3.50;2.58;;;;;;;28.38;45.00;100851.00;1751806;80;21805;-82
2022/07/29 03:35:17;;;;;;;3.02;2.70;;;;;;;28.38;44.98;100852.98;1751702;80;21014;-83
2022/07/29 03:37:44;;;;;;;3.27;2.65;;;;;;;28.38;44.99;100851.59;1732241;81;21022;-83
2022/07/29 03:40:14;;;;;;;3.25;2.70;;;;;;;28.39;44.99;100854.61;1741269;81;21022;-82
2022/07/29 03:42:40;;;;;;;3.83;3.03;;;;;;;28.38;45.04;100856.60;1751851;80;21021;-83
2022/07/29 03:45:10;;;;;;;3.70;2.98;;;;;;;28.37;45.03;100854.97;1751367;80;21289;-83
2022/07/29 03:47:40;;;;;;;2.80;2.50;;;;;;;28.37;45.01;100859.17;1751676;80;21117;-82
2022/07/29 03:50:07;;;;;;;2.83;2.50;;;;;;;28.37;45.02;100863.37;1732774;81;21006;-82
2022/07/29 03:52:34;;;;;;;2.95;2.50;;;;;;;28.38;45.01;100868.38;1746985;80;21504;-83
2022/07/29 03:55:00;;;;;;;2.60;2.30;;;;;;;28.38;45.01;100865.58;1751314;80;21488;-83
2022/07/29 03:57:28;;;;;;;4.47;3.12;;;;;;;28.37;44.99;100866.17;1732635;81;21868;-83
2022/07/29 03:59:54;;;;;;;3.30;3.00;;;;;;;28.38;44.99;100866.98;1740983;81;21022;-83
2022/07/29 04:02:27;;;;;;;4.12;2.90;;;;;;;28.37;45.01;100874.56;1757626;80;21081;-83
2022/07/29 04:04:53;;;;;;;4.28;2.98;;;;;;;28.38;45.04;100872.58;1741103;82;21041;-83
2022/07/29 04:07:20;;;;;;;3.42;3.02;;;;;;;28.38;45.04;100876.19;1751467;80;21050;-83
2022/07/29 04:09:46;;;;;;;3.20;2.60;;;;;;;28.37;45.02;100877.95;1751370;80;22095;-83
2022/07/29 04:12:13;;;;;;;3.27;2.98;;;;;;;28.37;45.02;100874.56;1748760;80;21041;-83
2022/07/29 04:14:39;;;;;;;2.90;2.70;;;;;;;28.38;45.01;100880.97;1744290;81;21069;-83
2022/07/29 04:17:11;;;;;;;3.42;2.80;;;;;;;28.38;45.01;100876.77;1744470;81;21112;-82
2022/07/29 04:19:38;;;;;;;3.62;3.10;;;;;;;28.38;44.99;100879.57;1744623;81;21288;-83
2022/07/29 04:22:04;;;;;;;2.98;2.60;;;;;;;28.37;45.00;100874.56;1744214;80;21116;-83
2022/07/29 04:24:31;;;;;;;3.20;2.90;;;;;;;28.37;44.97;100883.55;1744378;80;21033;-83
2022/07/29 04:26:57;;;;;;;3.17;2.80;;;;;;;28.38;44.95;100882.38;1744424;80;21522;-83
2022/07/29 04:29:24;;;;;;;2.67;2.42;;;;;;;28.37;44.99;100889.95;1744283;81;20949;-83
2022/07/29 04:31:50;;;;;;;3.10;2.80;;;;;;;28.37;44.99;100887.73;1744434;82;21061;-83
2022/07/29 04:34:17;;;;;;;3.70;2.98;;;;;;;28.37;44.97;100890.54;1744470;80;21495;-82
2022/07/29 04:36:43;;;;;;;3.42;2.98;;;;;;;28.36;44.97;100886.92;1744176;82;21606;-83
2022/07/29 04:39:10;;;;;;;3.47;3.17;;;;;;;28.38;44.95;100890.77;1744402;80;21100;-83
2022/07/29 04:41:36;;;;;;;3.87;2.70;;;;;;;28.37;44.96;100887.73;1744375;80;21128;-83
2022/07/29 04:44:05;;;;;;;3.47;3.08;;;;;;;28.37;44.97;100887.73;1744184;81;21072;-83
2022/07/29 04:46:32;;;;;;;3.05;2.75;;;;;;;28.37;44.95;100883.55;1744389;80;21162;-83
2022/07/29 04:48:58;;;;;;;3.65;3.08;;;;;;;28.37;44.94;100890.54;1749801;80;21112;-82
2022/07/29 04:51:25;;;;;;;3.35;3.05;;;;;;;28.36;44.94;100884.13;1751147;80;21025;-82
2022/07/29 04:53:51;;;;;;;3.10;2.60;;;;;;;28.37;44.96;100894.15;1751178;80;21493;-82
2022/07/29 04:56:17;;;;;;;3.27;2.98;;;;;;;28.37;44.95;100889.95;1732533;80;20966;-82
2022/07/29 04:58:44;;;;;;;3.20;2.77;;;;;;;28.37;44.96;100890.54;1740771;82;21027;-82
2022/07/29 05:01:10;;;;;;;3.05;2.75;;;;;;;28.37;44.97;100890.54;1751415;80;21089;-82
2022/07/29 05:03:37;;;;;;;3.20;2.52;;;;;;;28.37;44.95;100891.35;1751351;80;21457;-82
2022/07/29 05:06:03;;;;;;;2.90;2.52;;;;;;;28.38;44.93;100893.56;1751297;81;21065;-83
2022/07/29 05:08:30;;;;;;;3.37;2.90;;;;;;;28.37;44.94;100892.75;1752358;80;21050;-83
2022/07/29 05:10:58;;;;;;;3.90;3.20;;;;;;;28.38;45.02;100897.77;1754370;81;21154;-82
2022/07/29 05:13:27;;;;;;;2.98;2.60;;;;;;;28.38;45.06;100896.36;1754264;81;21074;-83
2022/07/29 05:15:54;;;;;;;3.20;2.77;;;;;;;28.37;45.11;100901.14;1754611;81;21034;-82
2022/07/29 05:18:20;;;;;;;3.52;2.98;;;;;;;28.36;45.14;100902.91;1754556;81;21434;-82
2022/07/29 05:20:47;;;;;;;3.40;2.67;;;;;;;28.36;45.18;100898.12;1754243;81;21019;-83
2022/07/29 05:23:14;;;;;;;3.77;3.37;;;;;;;28.35;45.23;100906.88;1754643;81;21447;-82
2022/07/29 05:25:41;;;;;;;3.62;3.02;;;;;;;28.34;45.29;100889.88;1751547;81;21321;-82
2022/07/29 05:28:07;;;;;;;3.67;3.25;;;;;;;28.33;45.30;100903.06;1751323;82;21057;-82
2022/07/29 05:30:34;;;;;;;3.87;3.40;;;;;;;28.33;45.36;100896.66;1751653;82;21037;-83
2022/07/29 05:33:00;;;;;;;4.90;3.62;;;;;;;28.32;45.40;100902.83;1751344;81;21639;-83
2022/07/29 05:35:26;;;;;;;4.22;3.27;;;;;;;28.33;45.47;100904.46;1751363;81;21449;-82
2022/07/29 05:37:53;;;;;;;5.55;3.87;;;;;;;28.32;45.48;100908.43;1751358;81;21097;-81
2022/07/29 05:40:20;;;;;;;4.03;3.62;;;;;;;28.33;45.54;100905.05;1751605;81;21100;-82
2022/07/29 05:42:46;;;;;;;5.22;3.77;;;;;;;28.33;45.59;100907.84;1751424;81;21030;-83
2022/07/29 05:45:12;;;;;;;7.03;3.60;;;;;;;28.33;45.61;100911.45;1751873;81;21042;-83
2022/07/29 05:47:39;;;;;;;4.67;3.85;;;;;;;28.32;45.65;100914.03;1751786;81;21135;-83
2022/07/29 05:50:07;;;;;;;5.85;3.90;;;;;;;28.33;45.67;100913.44;1751276;81;21472;-83
2022/07/29 05:52:33;;;;;;;5.05;3.80;;;;;;;28.34;45.72;100917.87;1751763;81;21497;-83
2022/07/29 05:55:04;;;;;;;4.95;3.80;;;;;;;28.32;45.73;100916.01;1751387;81;21057;-82
2022/07/29 05:57:28;;;;;;;4.95;3.50;;;;;;;28.32;45.77;100911.23;1751055;81;21026;-83
2022/07/29 05:59:54;;;;;;;4.62;4.15;;;;;;;28.33;45.78;100909.24;1751740;81;21143;-83
2022/07/29 06:02:21;;;;;;;4.72;3.67;;;;;;;28.32;45.79;100911.81;1751215;82;21093;-83
2022/07/29 06:04:48;;;;;;;3.95;3.55;;;;;;;28.33;45.84;100913.44;1751419;82;21018;-84
2022/07/29 06:07:15;;;;;;;4.08;3.67;;;;;;;28.32;45.85;100914.03;1751528;81;21085;-82
2022/07/29 06:09:48;;;;;;;5.72;3.70;;;;;;;28.32;45.87;100916.83;1756862;80;21046;-83
2022/07/29 06:12:14;;;;;;;4.15;3.75;;;;;;;28.33;45.86;100914.84;1759028;81;21174;-83
2022/07/29 06:14:43;;;;;;;4.97;4.55;;;;;;;28.32;45.88;100916.01;1758764;80;21038;-83
2022/07/29 06:17:11;;;;;;;5.50;3.98;;;;;;;28.30;45.93;100914.19;1758399;80;21042;-82
2022/07/29 06:19:37;;;;;;;6.10;4.33;;;;;;;28.28;45.95;100918.73;1758850;80;21085;-83
2022/07/29 06:22:04;;;;;;;5.65;3.95;;;;;;;28.28;45.95;100920.14;1759248;80;20931;-83
2022/07/29 06:24:30;;;;;;;4.30;3.90;;;;;;;28.28;45.95;100918.73;1759214;80;21061;-83
2022/07/29 06:26:57;;;;;;;5.42;4.03;;;;;;;28.30;45.98;100915.59;1729269;81;20995;-83
2022/07/29 06:29:24;;;;;;;6.25;4.00;;;;;;;28.30;45.98;100916.40;1759268;81;20923;-83
2022/07/29 06:31:50;;;;;;;3.95;3.55;;;;;;;28.31;45.97;100912.98;1759156;81;21489;-83
2022/07/29 06:34:17;;;;;;;4.83;3.87;;;;;;;28.31;45.98;100908.20;1759112;81;21407;-83
2022/07/29 06:36:43;;;;;;;6.92;3.90;;;;;;;28.33;45.96;100913.44;1759436;81;21952;-83
2022/07/29 06:39:10;;;;;;;4.72;4.25;;;;;;;28.33;45.96;100905.05;1759151;80;21007;-83
2022/07/29 06:41:36;;;;;;;5.12;3.75;;;;;;;28.34;45.97;100903.88;1727097;81;21062;-82
2022/07/29 06:44:04;;;;;;;4.42;3.77;;;;;;;28.35;45.95;100901.27;1772588;80;21027;-82
2022/07/29 06:46:30;;;;;;;4.92;3.85;;;;;;;28.35;45.94;100902.67;1758874;80;21622;-82
2022/07/29 06:48:57;;;;;;;4.87;3.90;;;;;;;28.36;45.94;100902.91;1758638;80;21115;-82
2022/07/29 06:51:23;;;;;;;6.15;4.22;;;;;;;28.35;45.91;100910.48;1755793;80;21358;-83
2022/07/29 06:53:51;;;;;;;5.05;3.85;;;;;;;28.37;45.90;100907.33;1737356;81;21132;-82
2022/07/29 06:56:18;;;;;;;5.05;3.90;;;;;;;28.37;45.90;100907.33;1728121;81;21092;-82
2022/07/29 06:58:44;;;;;;;4.35;3.95;;;;;;;28.38;45.83;100902.77;1728457;81;21018;-82
2022/07/29 07:01:10;;;;;;;5.10;3.85;;;;;;;28.38;45.81;100913.16;1728423;81;21137;-82
2022/07/29 07:03:37;;;;;;;5.53;4.30;;;;;;;28.39;45.83;100907.78;1754295;81;21106;-82
2022/07/29 07:06:04;;;;;;;6.85;4.47;;;;;;;28.40;45.80;100909.38;1757341;81;21053;-82
2022/07/29 07:08:30;;;;;;;5.75;4.00;;;;;;;28.39;45.79;100899.39;1757325;80;21091;-82
2022/07/29 07:10:57;;;;;;;4.80;4.30;;;;;;;28.40;45.74;100902.38;1759483;80;20983;-82
2022/07/29 07:13:23;;;;;;;6.58;4.37;;;;;;;28.39;45.71;100897.38;1758882;80;21111;-83
2022/07/29 07:15:51;;;;;;;5.15;3.80;;;;;;;28.41;45.70;100897.83;1758572;80;21382;-83
2022/07/29 07:18:18;;;;;;;6.17;3.95;;;;;;;28.41;45.70;100897.83;1758766;81;21030;-83
2022/07/29 07:20:44;;;;;;;5.60;4.40;;;;;;;28.40;45.72;100904.59;1758438;80;21026;-82
2022/07/29 07:23:11;;;;;;;4.60;4.03;;;;;;;28.38;45.74;100898.58;1758148;80;20986;-82
2022/07/29 07:25:37;;;;;;;5.12;4.12;;;;;;;28.39;45.74;100896.59;1756463;80;21692;-82
2022/07/29 07:28:04;;;;;;;4.47;3.77;;;;;;;28.38;45.70;100895.78;1754588;81;20998;-83
2022/07/29 07:30:30;;;;;;;4.83;4.28;;;;;;;28.38;45.74;100895.78;1745739;80;21140;-83
2022/07/29 07:32:59;;;;;;;4.67;4.05;;;;;;;28.38;45.74;100898.58;1721421;82;21683;-83
2022/07/29 07:35:27;;;;;;;4.20;3.80;;;;;;;28.36;45.73;100896.72;1726361;81;21472;-82
2022/07/29 07:37:55;;;;;;;5.90;4.10;;;;;;;28.35;45.72;100895.68;1726452;81;21130;-83
2022/07/29 07:40:21;;;;;;;4.25;3.70;;;;;;;28.35;45.78;100899.29;1726200;81;21010;-83
2022/07/29 07:42:48;;;;;;;5.20;3.70;;;;;;;28.36;45.77;100900.11;1754049;80;21446;-82
2022/07/29 07:45:14;;;;;;;5.40;4.12;;;;;;;28.35;45.76;100891.48;1758172;80;21034;-82
2022/07/29 07:47:41;;;;;;;4.80;3.72;;;;;;;28.35;45.76;100895.68;1758572;81;21003;-82
2022/07/29 07:50:09;;;;;;;5.40;4.03;;;;;;;28.36;45.70;100901.50;1758648;80;21182;-82
2022/07/29 07:52:47;;;;;;;4.08;3.67;;;;;;;28.35;45.70;100904.07;1758507;81;21042;-82
2022/07/29 07:55:14;;;;;;;4.62;3.55;;;;;;;28.35;45.70;100902.09;1758385;80;21030;-82
2022/07/29 07:57:40;;;;;;;4.87;3.65;;;;;;;28.36;45.71;100902.31;1747618;80;21043;-82
2022/07/29 08:00:08;;;;;;;4.45;3.40;;;;;;;28.36;45.70;100890.31;1758310;80;21030;-83
2022/07/29 08:02:34;;;;;;;4.75;4.00;;;;;;;28.36;45.67;100895.32;1758376;80;21476;-83
2022/07/29 08:05:00;;;;;;;4.70;3.42;;;;;;;28.36;45.67;100905.70;1758582;81;21356;-82
2022/07/29 08:07:27;;;;;;;4.22;3.83;;;;;;;28.36;45.65;100898.70;1728547;81;21078;-83
2022/07/29 08:09:59;;;;;;;4.87;3.60;;;;;;;28.36;45.65;100898.12;1750434;80;21039;-82
2022/07/29 08:12:25;;;;;;;4.12;3.55;;;;;;;28.36;45.57;100893.11;1726647;81;21058;-82
2022/07/29 08:14:52;;;;;;;4.28;3.42;;;;;;;28.34;45.38;100894.89;1751248;80;21062;-83
2022/07/29 08:17:18;;;;;;;4.10;3.70;;;;;;;28.35;45.37;100895.68;1751023;80;21078;-83
2022/07/29 08:19:47;;;;;;;4.45;3.45;;;;;;;28.35;45.44;100890.89;1751210;80;21046;-82
2022/07/29 08:22:14;;;;;;;6.25;3.20;;;;;;;28.35;45.42;100895.09;1751113;80;21031;-82
2022/07/29 08:24:43;;;;;;;3.60;3.25;;;;;;;28.35;45.25;100895.09;1751024;80;21089;-83
2022/07/29 08:27:11;;;;;;;4.60;3.07;;;;;;;28.37;45.05;100891.35;1751346;80;21119;-82
2022/07/29 08:29:38;;;;;;;4.05;3.65;;;;;;;28.37;44.94;100887.16;1731405;80;21512;-82
2022/07/29 08:32:05;;;;;;;5.80;3.10;;;;;;;28.39;44.83;100887.58;1722629;83;21572;-82
2022/07/29 08:34:31;;;;;;;3.20;2.90;;;;;;;28.40;44.61;100886.99;1731262;81;21477;-82
2022/07/29 08:36:58;;;;;;;4.80;3.17;;;;;;;28.43;44.36;100892.66;1751381;80;21519;-83
2022/07/29 08:39:24;;;;;;;6.25;3.35;;;;;;;28.45;44.14;100890.31;1758449;80;21088;-82
2022/07/29 08:41:52;;;;;;;7.62;3.50;;;;;;;28.49;43.94;100878.59;1785457;80;20984;-83
2022/07/29 08:44:19;;;;;;;4.58;2.95;;;;;;;28.52;43.94;100889.05;1753700;80;21046;-82
2022/07/29 08:46:45;;;;;;;4.25;3.20;;;;;;;28.53;43.99;100883.67;1751069;80;21031;-83
2022/07/29 08:49:12;;;;;;;4.53;3.25;;;;;;;28.53;44.06;100880.06;1751735;81;21090;-83
2022/07/29 08:51:40;;;;;;;5.42;3.08;;;;;;;28.55;43.93;100879.12;1751611;80;21058;-83
2022/07/29 08:54:06;;;;;;;3.92;3.00;;;;;;;28.57;43.63;100878.95;1751028;80;21784;-83
2022/07/29 08:56:39;;;;;;;4.75;3.08;;;;;;;28.60;43.45;100876.80;1751181;80;21038;-84
2022/07/29 08:59:06;;;;;;;5.12;2.98;;;;;;;28.62;43.33;100873.64;1751458;80;20996;-83
2022/07/29 09:01:34;;;;;;;7.10;3.00;;;;;;;28.62;43.13;100870.84;1751132;80;21011;-83
2022/07/29 09:04:02;;;;;;;4.87;3.37;;;;;;;28.64;42.97;100867.09;1751394;80;22155;-83
2022/07/29 09:06:33;;;;;;;4.00;3.20;;;;;;;28.68;42.85;100866.58;1751386;80;21050;-83
2022/07/29 09:08:59;;;;;;;3.67;3.27;;;;;;;28.70;42.89;100855.83;1751167;80;21029;-83
2022/07/29 09:11:26;;;;;;;7.25;3.40;;;;;;;28.69;42.86;100862.57;1748177;80;21589;-83
2022/07/29 09:13:52;;;;;;;4.50;3.20;;;;;;;28.70;42.76;100870.41;1761914;80;21548;-83
2022/07/29 09:16:19;;;;;;;5.25;3.35;;;;;;;28.69;42.78;100859.77;1761666;81;21457;-83
2022/07/29 09:18:46;;;;;;;6.00;2.90;;;;;;;28.69;42.99;100851.95;1762085;80;20982;-83
2022/07/29 09:24:09;;;;;;;3.75;2.72;;;;;;;28.66;43.47;100849.33;1741568;80;21069;-84
2022/07/29 09:26:44;;;;;;;4.10;3.20;;;;;;;28.67;43.05;100850.95;1668731;84;21083;-82
2022/07/29 09:29:19;;;;;;;4.83;3.05;;;;;;;28.70;42.83;100853.61;1669859;84;21207;-84
2022/07/29 09:31:51;;;;;;;4.17;2.90;;;;;;;28.70;42.54;100853.03;1668518;84;21072;-84
2022/07/29 09:34:23;;;;;;;5.87;3.12;;;;;;;28.71;42.33;100856.05;1683478;85;21131;-84
2022/07/29 09:36:52;;;;;;;6.08;3.08;;;;;;;28.72;42.32;100851.27;1728170;81;21073;-83
2022/07/29 09:39:37;;;;;;;3.35;2.80;;;;;;;28.74;42.15;100855.89;1728607;82;21021;-83
2022/07/29 09:42:06;;;;;;;5.60;3.27;;;;;;;28.79;41.92;100851.39;1728843;81;21591;-83
2022/07/29 09:44:47;;;;;;;4.35;2.90;;;;;;;28.79;41.88;100845.20;1728258;81;21014;-83
2022/07/29 09:47:15;;;;;;;3.33;2.98;;;;;;;28.77;42.01;100849.56;1728598;81;21552;-84
2022/07/29 09:50:02;;;;;;;4.00;3.00;;;;;;;28.74;42.20;100848.30;1728813;81;21120;-83
2022/07/29 09:52:27;;;;;;;4.42;2.95;;;;;;;28.71;42.39;100843.45;1727322;81;21073;-84
2022/07/29 09:55:08;;;;;;;4.58;2.87;;;;;;;28.67;42.62;100838.94;1728269;81;21101;-83
2022/07/29 09:57:35;;;;;;;4.12;2.70;;;;;;;28.65;42.82;100838.48;1725521;82;21571;-85
2022/07/29 10:00:06;;;;;;;3.80;2.65;;;;;;;28.64;42.98;100840.50;1729020;83;21037;-83
2022/07/29 10:02:34;;;;;;;6.17;2.80;;;;;;;28.61;43.11;100834.23;1728652;81;21101;-82
2022/07/29 10:05:03;;;;;;;3.42;2.92;;;;;;;28.60;43.15;100834.03;1728786;83;21041;-83
2022/07/29 10:07:50;;;;;;;5.15;2.87;;;;;;;28.60;43.25;100836.83;1729163;83;21153;-84
2022/07/29 10:10:26;;;;;;;4.35;2.70;;;;;;;28.58;43.32;100831.59;1726129;82;21553;-83
2022/07/29 10:12:56;;;;;;;4.62;3.20;;;;;;;28.57;43.37;100841.16;1703387;83;21148;-82
2022/07/29 10:15:25;;;;;;;3.60;2.75;;;;;;;28.57;43.44;100834.16;1721548;82;20996;-82
2022/07/29 10:17:54;;;;;;;3.65;2.58;;;;;;;28.57;43.51;100836.16;1750243;80;21069;-84
2022/07/29 10:20:21;;;;;;;3.98;2.70;;;;;;;28.56;43.60;100833.13;1751607;81;21135;-83
2022/07/29 10:22:48;;;;;;;3.58;3.00;;;;;;;28.55;43.65;100832.34;1751232;81;21548;-83
2022/07/29 10:25:16;;;;;;;3.20;2.90;;;;;;;28.55;43.71;100830.95;1751396;80;21101;-84
2022/07/29 10:27:43;;;;;;;3.10;2.80;;;;;;;28.55;43.74;100827.33;1751551;81;21279;-83
2022/07/29 10:30:11;;;;;;;3.95;2.67;;;;;;;28.55;43.77;100828.73;1751044;81;21025;-84
2022/07/29 10:33:01;;;;;;;3.05;2.75;;;;;;;28.54;43.79;100827.92;1751499;81;22009;-83
2022/07/29 10:36:06;;;;;;;3.10;2.47;;;;;;;28.55;43.84;100823.13;1751170;80;21085;-84
2022/07/29 10:38:50;;;;;;;3.02;2.70;;;;;;;28.54;43.84;100819.52;1751643;80;21629;-84
2022/07/29 10:41:54;;;;;;;3.52;2.50;;;;;;;28.54;43.88;100817.31;1751178;80;21034;-84
2022/07/29 10:44:22;;;;;;;4.42;2.70;;;;;;;28.53;43.92;100804.48;1750939;80;21568;-84
2022/07/29 10:46:49;;;;;;;2.95;2.40;;;;;;;28.53;43.96;100801.69;1751307;80;21403;-83
2022/07/29 10:49:17;;;;;;;3.05;2.52;;;;;;;28.52;43.99;100799.48;1751490;81;21571;-83
2022/07/29 10:51:59;;;;;;;3.33;2.67;;;;;;;28.53;44.04;100804.48;1751550;80;21129;-83
2022/07/29 10:54:49;;;;;;;3.60;2.67;;;;;;;28.53;44.05;100796.09;1751217;80;21608;-84
2022/07/29 10:57:30;;;;;;;3.00;2.67;;;;;;;28.52;44.07;100790.27;1751686;80;21033;-84
2022/07/29 11:00:17;;;;;;;2.92;2.62;;;;;;;28.51;44.06;100789.48;1750428;80;21188;-84
2022/07/29 11:02:48;;;;;;;3.98;2.77;;;;;;;28.51;44.10;100797.88;1751272;80;21102;-83
2022/07/29 11:05:20;;;;;;;2.87;2.55;;;;;;;28.53;44.11;100793.30;1742066;80;21043;-83
2022/07/29 11:08:17;;;;;;;2.80;2.50;;;;;;;28.52;44.14;100784.67;1749879;80;21097;-83
2022/07/29 11:10:44;;;;;;;3.27;2.70;;;;;;;28.52;44.17;100781.88;1740594;80;21470;-83
2022/07/29 11:13:10;;;;;;;3.17;2.72;;;;;;;28.52;44.19;100780.47;1730262;82;21112;-84
2022/07/29 11:15:57;;;;;;;3.58;2.75;;;;;;;28.51;44.18;100768.50;1730310;81;21082;-84
2022/07/29 11:18:23;;;;;;;3.20;2.90;;;;;;;28.51;44.20;100764.30;1730085;81;21116;-84
2022/07/29 11:20:53;;;;;;;3.12;2.70;;;;;;;28.52;44.22;100767.29;1730422;82;21067;-84
2022/07/29 11:23:35;;;;;;;3.50;2.62;;;;;;;28.52;44.24;100761.69;1730418;81;21510;-84
2022/07/29 11:26:16;;;;;;;2.95;2.70;;;;;;;28.53;44.25;100758.30;1725154;81;21122;-84
2022/07/29 11:28:59;;;;;;;3.65;2.55;;;;;;;28.53;44.25;100762.50;1710336;81;21083;-84
2022/07/29 11:31:38;;;;;;;3.10;2.62;;;;;;;28.53;44.26;100761.11;1673621;85;21021;-83
2022/07/29 11:34:30;;;;;;;3.55;2.95;;;;;;;28.52;44.26;100755.28;1683643;84;21438;-83
2022/07/29 11:37:14;;;;;;;2.87;2.55;;;;;;;28.53;44.28;100754.11;1694406;84;21095;-84
2022/07/29 11:39:56;;;;;;;3.05;2.22;;;;;;;28.53;44.27;100756.31;1696603;82;21060;-84
2022/07/29 11:42:30;;;;;;;3.45;2.45;;;;;;;28.53;44.28;100754.11;1678294;82;21110;-84